Time;durP1;ratioP1;P1;durP2;ratioP2;P2;SDS_P1;SDS_P2;PMS_P1;PMS_P2;Temp;Humidity;BMP_temperature;BMP_pressure;BME280_temperature;BME280_humidity;BME280_pressure;Samples;Min_cycle;Max_cycle;Signal;HPM_P1;HPM_P2
2023/10/06 00:01:45;;;;;;;;;;;21.50;63.00;;;;;;6250018;28;19931;-65
2023/10/06 00:04:46;;;;;;;;;;;21.50;63.10;;;;;;6260551;28;20661;-65
2023/10/06 00:07:46;;;;;;;;;;;21.50;63.90;;;;;;6268862;28;20063;-66
2023/10/06 00:10:51;;;;;;;;;;;21.50;63.10;;;;;;6259298;28;20308;-66
2023/10/06 00:14:00;;;;;;;;;;;21.50;63.10;;;;;;6269044;28;20002;-66
2023/10/06 00:17:01;;;;;;;;;;;21.50;63.20;;;;;;6251815;28;19909;-65
2023/10/06 00:20:05;;;;;;;;;;;21.50;63.00;;;;;;6268956;28;19935;-66
2023/10/06 00:23:14;;;;;;;;;;;21.50;63.20;;;;;;6265076;28;19909;-65
2023/10/06 00:26:16;;;;;;;;;;;21.50;63.00;;;;;;6271843;28;19949;-65
2023/10/06 00:29:21;;;;;;;;;;;21.50;63.10;;;;;;6264017;28;20381;-68
2023/10/06 00:32:28;;;;;;;;;;;21.50;63.10;;;;;;6250856;28;20334;-67
2023/10/06 00:35:30;;;;;;;;;;;21.50;63.10;;;;;;6265367;28;19931;-67
2023/10/06 00:38:32;;;;;;;;;;;21.50;63.30;;;;;;6255056;28;19956;-67
2023/10/06 00:41:35;;;;;;;;;;;21.50;63.00;;;;;;6267375;28;19904;-68
2023/10/06 00:44:35;;;;;;;;;;;21.50;62.90;;;;;;6262172;28;20346;-67
2023/10/06 00:47:38;;;;;;;;;;;21.50;63.10;;;;;;6271415;28;19909;-66
2023/10/06 00:50:39;;;;;;;;;;;21.50;63.30;;;;;;6260524;28;19916;-67
2023/10/06 00:53:41;;;;;;;;;;;21.50;63.20;;;;;;6271498;28;19927;-65
2023/10/06 00:56:42;;;;;;;;;;;21.50;63.10;;;;;;6264790;28;19907;-67
2023/10/06 00:59:43;;;;;;;;;;;21.50;63.00;;;;;;6256017;28;19947;-66
2023/10/06 01:02:44;;;;;;;;;;;21.50;63.20;;;;;;6258187;28;20007;-67
2023/10/06 01:05:45;;;;;;;;;;;21.50;63.50;;;;;;6270346;28;19913;-68
2023/10/06 01:08:52;;;;;;;;;;;21.50;63.30;;;;;;6266297;28;20346;-68
2023/10/06 01:11:55;;;;;;;;;;;21.50;63.10;;;;;;6258867;28;20375;-68
2023/10/06 01:18:26;;;;;;;;;;;21.50;63.30;;;;;;6262869;28;20007;-67
2023/10/06 01:21:30;;;;;;;;;;;21.50;63.20;;;;;;6255931;28;19908;-68
2023/10/06 01:24:31;;;;;;;;;;;21.50;63.10;;;;;;6269408;28;19908;-66
2023/10/06 01:27:31;;;;;;;;;;;21.50;63.10;;;;;;6264295;28;19947;-65
2023/10/06 01:30:32;;;;;;;;;;;21.50;63.30;;;;;;6262867;28;19951;-68
2023/10/06 01:33:33;;;;;;;;;;;21.50;63.10;;;;;;6268852;28;19911;-68
2023/10/06 01:36:42;;;;;;;;;;;21.50;63.30;;;;;;6264589;28;19905;-65
2023/10/06 01:39:44;;;;;;;;;;;21.50;63.10;;;;;;6269889;28;19922;-66
2023/10/06 01:42:45;;;;;;;;;;;21.50;63.30;;;;;;6261129;28;19909;-66
2023/10/06 01:45:46;;;;;;;;;;;21.50;63.00;;;;;;6265065;28;19913;-65
2023/10/06 01:48:47;;;;;;;;;;;21.50;63.90;;;;;;6257864;28;19966;-67
2023/10/06 01:51:50;;;;;;;;;;;21.50;62.90;;;;;;6266038;28;19904;-67
2023/10/06 01:54:51;;;;;;;;;;;21.50;63.00;;;;;;6268992;28;20355;-67
2023/10/06 01:57:52;;;;;;;;;;;21.50;63.10;;;;;;6256961;28;19905;-67
2023/10/06 02:00:52;;;;;;;;;;;21.50;63.10;;;;;;6251808;28;19905;-67
2023/10/06 02:03:53;;;;;;;;;;;21.50;63.20;;;;;;6247570;28;20302;-67
2023/10/06 02:06:53;;;;;;;;;;;21.50;63.30;;;;;;6269311;28;19905;-66
2023/10/06 02:09:54;;;;;;;;;;;21.50;63.00;;;;;;6269008;28;19904;-67
2023/10/06 02:12:55;;;;;;;;;;;21.50;63.20;;;;;;6269894;28;20030;-67
2023/10/06 02:15:59;;;;;;;;;;;21.50;63.00;;;;;;6258860;28;19905;-67
2023/10/06 02:19:02;;;;;;;;;;;21.50;63.10;;;;;;6268951;28;19909;-68
2023/10/06 02:22:06;;;;;;;;;;;21.50;63.20;;;;;;6262156;28;19958;-68
2023/10/06 02:25:10;;;;;;;;;;;21.50;63.30;;;;;;6263281;28;20396;-68
2023/10/06 02:28:14;;;;;;;;;;;21.50;63.20;;;;;;6267949;28;19905;-68
2023/10/06 02:31:15;;;;;;;;;;;21.50;63.20;;;;;;6269750;28;19999;-67
2023/10/06 02:34:24;;;;;;;;;;;21.50;63.30;;;;;;6253531;28;20360;-66
2023/10/06 02:37:25;;;;;;;;;;;21.50;63.10;;;;;;6256416;28;19909;-67
2023/10/06 02:40:38;;;;;;;;;;;21.50;63.20;;;;;;6262643;28;19950;-66
2023/10/06 02:43:40;;;;;;;;;;;21.50;63.10;;;;;;6264495;28;20003;-66
2023/10/06 02:46:44;;;;;;;;;;;21.50;63.30;;;;;;6258889;28;19904;-66
2023/10/06 02:49:49;;;;;;;;;;;21.50;63.20;;;;;;6260209;28;19929;-67
2023/10/06 02:52:53;;;;;;;;;;;21.50;63.00;;;;;;6266560;28;20406;-66
2023/10/06 02:55:56;;;;;;;;;;;21.50;63.00;;;;;;6265389;28;20339;-65
2023/10/06 02:59:07;;;;;;;;;;;21.50;63.30;;;;;;6266738;28;20421;-66
2023/10/06 03:02:15;;;;;;;;;;;21.50;63.30;;;;;;6262225;28;20221;-66
2023/10/06 03:05:17;;;;;;;;;;;21.50;63.30;;;;;;6268217;28;19919;-66
2023/10/06 03:08:20;;;;;;;;;;;21.50;63.30;;;;;;6268600;28;19940;-66
2023/10/06 03:11:23;;;;;;;;;;;21.50;63.30;;;;;;6254477;28;19911;-66
2023/10/06 03:14:37;;;;;;;;;;;21.50;63.30;;;;;;6260579;28;19928;-67
2023/10/06 03:17:37;;;;;;;;;;;21.50;63.20;;;;;;6260113;28;20280;-67
2023/10/06 03:20:46;;;;;;;;;;;21.50;63.30;;;;;;6267853;28;19912;-67
2023/10/06 03:23:57;;;;;;;;;;;21.50;63.30;;;;;;6258941;28;20374;-65
2023/10/06 03:26:58;;;;;;;;;;;21.50;63.20;;;;;;6254547;28;19905;-66
2023/10/06 03:30:10;;;;;;;;;;;21.50;63.10;;;;;;6262421;28;19912;-66
2023/10/06 03:33:13;;;;;;;;;;;21.50;63.30;;;;;;6262058;28;19909;-67
2023/10/06 03:36:17;;;;;;;;;;;21.50;63.40;;;;;;6265588;28;20358;-67
2023/10/06 03:39:23;;;;;;;;;;;21.50;63.40;;;;;;6265520;28;19923;-67
2023/10/06 03:42:27;;;;;;;;;;;21.50;63.40;;;;;;6259869;28;19909;-67
2023/10/06 03:45:34;;;;;;;;;;;21.50;63.20;;;;;;6266312;28;19908;-66
2023/10/06 03:48:35;;;;;;;;;;;21.50;63.30;;;;;;6263591;28;19955;-66
2023/10/06 03:51:39;;;;;;;;;;;21.50;63.40;;;;;;6265650;28;20415;-66
2023/10/06 03:54:39;;;;;;;;;;;21.50;63.10;;;;;;6267610;28;19913;-67
2023/10/06 03:57:40;;;;;;;;;;;21.50;63.30;;;;;;6258926;28;19912;-66
2023/10/06 04:00:47;;;;;;;;;;;21.50;63.20;;;;;;6259453;28;19935;-66
2023/10/06 04:03:48;;;;;;;;;;;21.50;63.40;;;;;;6265490;28;19988;-66
2023/10/06 04:06:49;;;;;;;;;;;21.50;63.30;;;;;;6263915;28;19911;-66
2023/10/06 04:09:49;;;;;;;;;;;21.50;63.40;;;;;;6258715;28;20303;-67
2023/10/06 04:12:50;;;;;;;;;;;21.50;63.20;;;;;;6263594;28;20000;-66
2023/10/06 04:15:54;;;;;;;;;;;21.50;63.40;;;;;;6258743;28;20435;-66
2023/10/06 04:18:55;;;;;;;;;;;21.50;63.30;;;;;;6252576;28;20288;-66
2023/10/06 04:21:55;;;;;;;;;;;21.50;63.40;;;;;;6263203;28;19944;-67
2023/10/06 04:24:56;;;;;;;;;;;21.50;63.40;;;;;;6249711;28;20007;-68
2023/10/06 04:27:56;;;;;;;;;;;21.50;63.30;;;;;;6250199;28;19909;-67
2023/10/06 04:31:00;;;;;;;;;;;21.50;63.40;;;;;;6256529;28;19905;-67
2023/10/06 04:34:01;;;;;;;;;;;21.40;63.30;;;;;;6262259;28;19916;-67
2023/10/06 04:37:03;;;;;;;;;;;21.50;63.50;;;;;;6265144;28;20340;-68
2023/10/06 04:40:06;;;;;;;;;;;21.50;63.50;;;;;;6254488;28;19917;-67
2023/10/06 04:43:07;;;;;;;;;;;21.50;63.30;;;;;;6250791;28;20057;-68
2023/10/06 04:46:08;;;;;;;;;;;21.40;63.20;;;;;;6258809;28;20381;-67
2023/10/06 04:49:09;;;;;;;;;;;21.50;63.40;;;;;;6267407;28;19955;-66
2023/10/06 04:52:10;;;;;;;;;;;21.40;63.20;;;;;;6256362;28;19959;-66
2023/10/06 04:55:12;;;;;;;;;;;21.50;63.40;;;;;;6270112;28;19940;-65
2023/10/06 04:58:15;;;;;;;;;;;21.40;63.30;;;;;;6262462;28;19912;-67
2023/10/06 05:01:16;;;;;;;;;;;21.50;63.40;;;;;;6253472;28;19952;-67
2023/10/06 05:04:17;;;;;;;;;;;21.40;63.30;;;;;;6260146;28;19909;-68
2023/10/06 05:07:17;;;;;;;;;;;21.50;63.40;;;;;;6265483;28;19905;-67
2023/10/06 05:10:21;;;;;;;;;;;21.40;63.30;;;;;;6263262;28;20377;-72
2023/10/06 05:13:22;;;;;;;;;;;21.40;63.30;;;;;;6258376;28;20003;-67
2023/10/06 05:16:22;;;;;;;;;;;21.40;63.40;;;;;;6263231;28;19905;-70
2023/10/06 05:19:24;;;;;;;;;;;21.50;63.50;;;;;;6254125;28;19909;-67
2023/10/06 05:22:24;;;;;;;;;;;21.50;63.50;;;;;;6259072;28;19939;-66
2023/10/06 05:25:26;;;;;;;;;;;21.50;63.70;;;;;;6266301;28;19905;-65
2023/10/06 05:28:26;;;;;;;;;;;21.40;63.80;;;;;;6271375;28;19908;-67
2023/10/06 05:31:27;;;;;;;;;;;21.40;63.20;;;;;;6270021;28;19909;-67
2023/10/06 05:34:29;;;;;;;;;;;21.40;62.70;;;;;;6263739;28;19916;-68
2023/10/06 05:37:32;;;;;;;;;;;21.40;62.30;;;;;;6270286;28;19926;-68
2023/10/06 05:40:32;;;;;;;;;;;21.40;62.60;;;;;;6274082;28;19973;-67
2023/10/06 05:43:33;;;;;;;;;;;21.30;62.50;;;;;;6263953;28;19951;-66
2023/10/06 05:46:34;;;;;;;;;;;21.40;62.90;;;;;;6266650;28;19912;-64
2023/10/06 05:49:38;;;;;;;;;;;21.50;63.10;;;;;;6262571;28;19905;-67
2023/10/06 05:52:39;;;;;;;;;;;21.50;62.50;;;;;;6263562;28;19915;-67
2023/10/06 05:55:43;;;;;;;;;;;21.50;62.70;;;;;;6269265;28;20256;-66
2023/10/06 05:58:44;;;;;;;;;;;21.60;61.40;;;;;;6262177;28;20413;-67
2023/10/06 06:01:46;;;;;;;;;;;21.70;60.20;;;;;;6253338;28;19905;-66
2023/10/06 06:04:47;;;;;;;;;;;21.80;59.60;;;;;;6266644;28;20007;-68
2023/10/06 06:07:51;;;;;;;;;;;21.90;59.00;;;;;;6270530;28;19911;-67
2023/10/06 06:10:52;;;;;;;;;;;22.00;58.30;;;;;;6268780;28;19962;-68
2023/10/06 06:13:56;;;;;;;;;;;22.10;57.90;;;;;;6267433;28;19905;-66
2023/10/06 06:16:57;;;;;;;;;;;22.10;57.50;;;;;;6262543;28;19905;-66
2023/10/06 06:19:58;;;;;;;;;;;22.20;57.30;;;;;;6257980;28;20382;-66
2023/10/06 06:22:59;;;;;;;;;;;22.30;57.00;;;;;;6258056;28;19980;-66
2023/10/06 06:26:00;;;;;;;;;;;22.40;56.80;;;;;;6257760;28;19999;-66
2023/10/06 06:29:02;;;;;;;;;;;22.40;56.50;;;;;;6268465;28;19908;-66
2023/10/06 06:32:11;;;;;;;;;;;22.40;56.40;;;;;;6271359;28;19909;-66
2023/10/06 06:35:13;;;;;;;;;;;22.40;56.10;;;;;;6262748;28;19905;-66
2023/10/06 06:38:14;;;;;;;;;;;22.40;56.10;;;;;;6261361;28;19940;-66
2023/10/06 06:41:15;;;;;;;;;;;22.40;56.00;;;;;;6261511;28;19904;-66
2023/10/06 06:44:16;;;;;;;;;;;22.50;56.00;;;;;;6270507;28;19916;-66
2023/10/06 06:47:17;;;;;;;;;;;22.50;55.70;;;;;;6262685;28;19905;-67
2023/10/06 06:50:18;;;;;;;;;;;22.50;55.80;;;;;;6265840;28;20322;-66
2023/10/06 06:53:18;;;;;;;;;;;22.50;55.60;;;;;;6270563;28;20322;-66
2023/10/06 06:56:20;;;;;;;;;;;22.50;55.60;;;;;;6269057;28;19909;-66
2023/10/06 06:59:21;;;;;;;;;;;22.50;55.30;;;;;;6260904;28;19916;-66
2023/10/06 07:02:22;;;;;;;;;;;22.50;55.50;;;;;;6270343;28;19909;-65
2023/10/06 07:05:23;;;;;;;;;;;22.50;55.30;;;;;;6257299;28;19931;-65
2023/10/06 07:08:24;;;;;;;;;;;22.50;55.30;;;;;;6256494;28;19966;-65
2023/10/06 07:11:24;;;;;;;;;;;22.50;55.20;;;;;;6269942;28;19912;-65
2023/10/06 07:14:27;;;;;;;;;;;22.50;55.00;;;;;;6285096;28;19999;-66
2023/10/06 07:17:28;;;;;;;;;;;22.50;55.00;;;;;;6270137;28;19912;-66
2023/10/06 07:20:30;;;;;;;;;;;22.60;55.10;;;;;;6267675;28;20287;-66
2023/10/06 07:23:31;;;;;;;;;;;22.50;54.70;;;;;;6261711;28;19916;-66
2023/10/06 07:26:32;;;;;;;;;;;22.50;54.70;;;;;;6261853;28;19912;-66
2023/10/06 07:29:32;;;;;;;;;;;22.60;54.80;;;;;;6268650;28;19905;-65
2023/10/06 07:32:34;;;;;;;;;;;22.60;54.60;;;;;;6259425;28;19905;-65
2023/10/06 07:35:40;;;;;;;;;;;22.60;54.60;;;;;;6257859;28;19904;-65
2023/10/06 07:38:41;;;;;;;;;;;22.60;54.50;;;;;;6268965;28;20398;-65
2023/10/06 07:41:43;;;;;;;;;;;22.60;54.50;;;;;;6270900;28;19905;-65
2023/10/06 07:44:45;;;;;;;;;;;22.60;54.40;;;;;;6270879;28;19904;-65
2023/10/06 07:47:46;;;;;;;;;;;22.60;54.30;;;;;;6267670;28;19959;-65
2023/10/06 07:50:49;;;;;;;;;;;22.60;54.20;;;;;;6263663;28;19944;-65
2023/10/06 07:53:49;;;;;;;;;;;22.60;54.20;;;;;;6266583;28;19912;-65
2023/10/06 07:56:51;;;;;;;;;;;22.60;54.20;;;;;;6265825;28;19905;-65
2023/10/06 07:59:51;;;;;;;;;;;22.60;54.20;;;;;;6270432;28;19999;-66
2023/10/06 08:02:52;;;;;;;;;;;22.60;54.30;;;;;;6261829;28;19915;-66
2023/10/06 08:05:52;;;;;;;;;;;22.60;54.10;;;;;;6258390;28;19908;-65
2023/10/06 08:08:53;;;;;;;;;;;22.60;54.20;;;;;;6268105;28;19904;-66
2023/10/06 08:11:56;;;;;;;;;;;22.60;54.10;;;;;;6250102;28;19905;-66
2023/10/06 08:14:57;;;;;;;;;;;22.60;53.90;;;;;;6265800;28;19910;-65
2023/10/06 08:17:58;;;;;;;;;;;22.60;54.10;;;;;;6256027;28;19916;-65
2023/10/06 08:21:02;;;;;;;;;;;22.70;54.10;;;;;;6264764;28;19989;-65
2023/10/06 08:24:03;;;;;;;;;;;22.70;53.90;;;;;;6254218;28;19905;-65
2023/10/06 08:27:07;;;;;;;;;;;22.70;53.80;;;;;;6270202;28;19905;-65
2023/10/06 08:30:26;;;;;;;;;;;22.70;53.90;;;;;;6266758;28;20450;-65
2023/10/06 08:33:27;;;;;;;;;;;22.70;53.90;;;;;;6265248;28;19918;-65
2023/10/06 08:36:28;;;;;;;;;;;22.70;53.90;;;;;;6276702;28;20363;-64
2023/10/06 08:39:38;;;;;;;;;;;22.70;53.80;;;;;;6263828;28;20409;-65
2023/10/06 08:42:40;;;;;;;;;;;22.80;53.70;;;;;;6257653;28;20000;-65
2023/10/06 08:45:41;;;;;;;;;;;22.70;53.60;;;;;;6265780;28;19905;-65
2023/10/06 08:48:42;;;;;;;;;;;22.80;53.40;;;;;;6265710;28;20397;-63
2023/10/06 08:51:44;;;;;;;;;;;22.80;53.40;;;;;;6264214;28;20019;-65
2023/10/06 08:54:47;;;;;;;;;;;22.80;53.40;;;;;;6270716;28;20539;-64
2023/10/06 08:57:48;;;;;;;;;;;22.80;53.50;;;;;;6265304;28;20378;-64
2023/10/06 09:00:49;;;;;;;;;;;22.80;53.60;;;;;;6261518;28;19913;-64
2023/10/06 09:03:53;;;;;;;;;;;22.80;53.50;;;;;;6262895;28;19916;-65
2023/10/06 09:07:07;;;;;;;;;;;22.80;53.50;;;;;;6273152;28;19905;-64
2023/10/06 09:10:17;;;;;;;;;;;22.80;53.60;;;;;;6273402;28;19944;-65
2023/10/06 09:13:18;;;;;;;;;;;22.80;53.60;;;;;;6260919;28;19954;-65
2023/10/06 09:16:20;;;;;;;;;;;22.80;53.60;;;;;;6271013;28;19948;-65
2023/10/06 09:19:21;;;;;;;;;;;22.80;53.60;;;;;;6258631;28;19916;-64
2023/10/06 09:22:28;;;;;;;;;;;22.80;53.60;;;;;;6272745;28;19909;-64
2023/10/06 09:25:47;;;;;;;;;;;22.70;53.50;;;;;;6245094;28;19909;-65
2023/10/06 09:28:52;;;;;;;;;;;22.80;53.50;;;;;;6268055;28;20008;-65
2023/10/06 09:31:52;;;;;;;;;;;22.80;53.40;;;;;;6268436;28;19995;-65
2023/10/06 09:34:57;;;;;;;;;;;22.80;53.40;;;;;;6266777;28;19958;-64
2023/10/06 09:38:13;;;;;;;;;;;22.80;53.40;;;;;;6267882;28;19916;-64
2023/10/06 09:41:28;;;;;;;;;;;22.80;53.30;;;;;;6266961;28;19909;-65
2023/10/06 09:44:29;;;;;;;;;;;22.80;53.30;;;;;;6260242;28;19928;-64
2023/10/06 09:47:31;;;;;;;;;;;22.80;53.30;;;;;;6267590;28;20267;-64
2023/10/06 09:50:33;;;;;;;;;;;22.80;53.20;;;;;;6265662;28;19913;-65
2023/10/06 09:53:38;;;;;;;;;;;22.70;53.30;;;;;;6270692;28;20424;-65
2023/10/06 09:56:41;;;;;;;;;;;22.80;53.20;;;;;;6263655;28;19904;-65
2023/10/06 09:59:43;;;;;;;;;;;22.80;53.20;;;;;;6267231;28;20598;-65
2023/10/06 10:02:47;;;;;;;;;;;22.80;53.10;;;;;;6263348;28;20402;-64
2023/10/06 10:05:48;;;;;;;;;;;22.80;53.10;;;;;;6269215;28;19909;-64
2023/10/06 10:08:51;;;;;;;;;;;22.80;53.20;;;;;;6261889;28;19955;-64
2023/10/06 10:12:10;;;;;;;;;;;22.80;53.30;;;;;;6268441;28;19904;-64
2023/10/06 10:15:15;;;;;;;;;;;22.70;53.20;;;;;;6268356;28;20362;-65
2023/10/06 10:18:19;;;;;;;;;;;22.80;53.20;;;;;;6248528;28;19913;-64
2023/10/06 10:21:22;;;;;;;;;;;22.70;53.10;;;;;;6249728;28;19995;-65
2023/10/06 10:24:24;;;;;;;;;;;22.70;53.10;;;;;;6260999;28;19962;-64
2023/10/06 10:27:25;;;;;;;;;;;22.80;53.20;;;;;;6267526;28;20363;-65
2023/10/06 10:30:56;;;;;;;;;;;22.80;53.10;;;;;;6262916;28;19920;-64
2023/10/06 10:33:56;;;;;;;;;;;22.80;53.10;;;;;;6247863;28;19908;-64
2023/10/06 10:37:05;;;;;;;;;;;22.80;53.00;;;;;;6256283;28;19931;-64
2023/10/06 10:40:10;;;;;;;;;;;22.80;53.00;;;;;;6251658;28;19924;-63
2023/10/06 10:43:12;;;;;;;;;;;22.80;53.00;;;;;;6264999;28;19927;-64
2023/10/06 10:46:13;;;;;;;;;;;22.70;53.00;;;;;;6265019;28;19911;-64
2023/10/06 10:49:18;;;;;;;;;;;22.80;53.00;;;;;;6257900;28;19909;-64
2023/10/06 10:52:20;;;;;;;;;;;22.80;53.10;;;;;;6262693;28;20377;-65
2023/10/06 10:55:26;;;;;;;;;;;22.80;52.90;;;;;;6262167;28;19905;-65
2023/10/06 10:58:43;;;;;;;;;;;22.80;52.90;;;;;;6261436;28;19970;-65
2023/10/06 11:01:48;;;;;;;;;;;22.80;52.90;;;;;;6259881;28;19904;-64
2023/10/06 11:04:49;;;;;;;;;;;22.80;52.90;;;;;;6261092;28;19975;-64
2023/10/06 11:07:57;;;;;;;;;;;22.80;52.90;;;;;;6262799;28;19959;-64
2023/10/06 11:10:58;;;;;;;;;;;22.80;52.90;;;;;;6262065;28;19905;-64
2023/10/06 11:13:59;;;;;;;;;;;22.80;52.90;;;;;;6262675;28;19904;-65
2023/10/06 11:17:02;;;;;;;;;;;22.80;52.80;;;;;;6261655;28;19904;-65
2023/10/06 11:23:23;;;;;;;;;;;22.80;52.80;;;;;;6259531;28;19904;-68
2023/10/06 11:26:27;;;;;;;;;;;22.70;52.60;;;;;;6258767;28;20382;-70
2023/10/06 11:29:29;;;;;;;;;;;22.80;52.70;;;;;;6272423;28;19951;-71
2023/10/06 11:32:31;;;;;;;;;;;22.70;52.40;;;;;;6270367;28;19908;-70
2023/10/06 11:35:33;;;;;;;;;;;22.70;52.10;;;;;;6275102;28;19920;-69
2023/10/06 11:38:34;;;;;;;;;;;22.70;52.10;;;;;;6266790;28;20390;-70
2023/10/06 11:41:37;;;;;;;;;;;22.80;52.30;;;;;;6265004;28;19991;-72
2023/10/06 11:44:38;;;;;;;;;;;22.70;52.10;;;;;;6258190;28;19909;-72
2023/10/06 11:47:39;;;;;;;;;;;22.70;52.70;;;;;;6266520;28;20390;-70
2023/10/06 11:50:42;;;;;;;;;;;22.70;51.90;;;;;;6269444;28;19927;-70
2023/10/06 11:53:44;;;;;;;;;;;22.70;51.90;;;;;;6264004;28;19938;-71
2023/10/06 11:56:49;;;;;;;;;;;22.80;52.00;;;;;;6265315;28;20000;-71
2023/10/06 11:59:50;;;;;;;;;;;22.80;52.00;;;;;;6265832;28;19913;-70
2023/10/06 12:02:51;;;;;;;;;;;22.80;52.00;;;;;;6275921;28;19948;-71
2023/10/06 12:05:58;;;;;;;;;;;22.80;52.00;;;;;;6267484;28;20255;-68
2023/10/06 12:08:58;;;;;;;;;;;22.80;52.00;;;;;;6264797;28;19950;-68
2023/10/06 12:11:59;;;;;;;;;;;22.80;52.00;;;;;;6261946;28;20383;-67
2023/10/06 12:15:00;;;;;;;;;;;22.80;51.90;;;;;;6267722;28;19908;-70
2023/10/06 12:18:01;;;;;;;;;;;22.80;51.90;;;;;;6275944;28;19905;-65
2023/10/06 12:21:01;;;;;;;;;;;22.80;51.90;;;;;;6263551;28;20717;-64
2023/10/06 12:24:02;;;;;;;;;;;22.80;51.90;;;;;;6271661;28;19966;-64
2023/10/06 12:27:03;;;;;;;;;;;22.80;51.90;;;;;;6275046;28;19905;-65
2023/10/06 12:30:06;;;;;;;;;;;22.80;51.90;;;;;;6269774;28;19912;-65
2023/10/06 12:33:10;;;;;;;;;;;22.80;51.80;;;;;;6267654;28;19995;-65
2023/10/06 12:36:12;;;;;;;;;;;22.80;51.90;;;;;;6274917;28;20245;-65
2023/10/06 12:39:20;;;;;;;;;;;22.80;51.80;;;;;;6265674;28;19917;-64
2023/10/06 12:42:20;;;;;;;;;;;22.80;51.90;;;;;;6267539;28;19913;-65
2023/10/06 12:45:21;;;;;;;;;;;22.80;51.80;;;;;;6266860;28;19916;-65
2023/10/06 12:48:23;;;;;;;;;;;22.90;51.90;;;;;;6271728;28;20011;-65
2023/10/06 12:51:24;;;;;;;;;;;22.90;51.80;;;;;;6269764;28;19904;-65
2023/10/06 12:54:25;;;;;;;;;;;22.90;51.90;;;;;;6264516;28;19962;-65
2023/10/06 12:57:26;;;;;;;;;;;22.80;51.80;;;;;;6266400;28;19905;-63
2023/10/06 13:00:28;;;;;;;;;;;22.80;51.70;;;;;;6283317;28;20383;-65
2023/10/06 13:03:29;;;;;;;;;;;22.80;51.80;;;;;;6271748;28;19971;-66
2023/10/06 13:06:30;;;;;;;;;;;22.80;51.70;;;;;;6271254;28;20358;-65
2023/10/06 13:09:34;;;;;;;;;;;22.90;51.80;;;;;;6272091;28;19916;-66
2023/10/06 13:12:39;;;;;;;;;;;22.90;51.80;;;;;;6278483;28;19905;-66
2023/10/06 13:15:40;;;;;;;;;;;22.90;51.70;;;;;;6271815;28;19905;-65
2023/10/06 13:18:41;;;;;;;;;;;22.90;51.70;;;;;;6257244;28;19931;-66
2023/10/06 13:21:44;;;;;;;;;;;22.90;51.60;;;;;;6262734;28;20019;-65
2023/10/06 13:24:45;;;;;;;;;;;22.90;51.70;;;;;;6262548;28;19905;-65
2023/10/06 13:27:47;;;;;;;;;;;22.90;51.60;;;;;;6268320;28;19996;-65
2023/10/06 13:30:49;;;;;;;;;;;22.90;51.70;;;;;;6272025;28;19916;-65
2023/10/06 13:33:51;;;;;;;;;;;22.90;51.80;;;;;;6271686;28;19905;-65
2023/10/06 13:36:52;;;;;;;;;;;22.90;51.70;;;;;;6271513;28;19909;-65
2023/10/06 13:39:53;;;;;;;;;;;22.90;51.70;;;;;;6276576;28;20394;-66
2023/10/06 13:42:53;;;;;;;;;;;22.80;51.70;;;;;;6274740;28;19905;-66
2023/10/06 13:45:57;;;;;;;;;;;22.80;51.70;;;;;;6274201;28;20280;-65
2023/10/06 13:48:58;;;;;;;;;;;22.90;51.70;;;;;;6267667;28;19904;-65
2023/10/06 13:51:59;;;;;;;;;;;22.90;51.80;;;;;;6266221;28;19911;-65
2023/10/06 13:55:00;;;;;;;;;;;22.90;51.50;;;;;;6266150;28;20544;-66
2023/10/06 13:58:08;;;;;;;;;;;22.90;51.60;;;;;;6286961;28;19908;-66
2023/10/06 14:01:10;;;;;;;;;;;22.90;51.60;;;;;;6267161;28;19908;-65
2023/10/06 14:04:12;;;;;;;;;;;22.90;51.60;;;;;;6266504;28;19955;-66
2023/10/06 14:07:13;;;;;;;;;;;22.90;51.70;;;;;;6268326;28;19911;-66
2023/10/06 14:10:16;;;;;;;;;;;22.90;51.70;;;;;;6271767;28;19905;-66
2023/10/06 14:13:21;;;;;;;;;;;22.90;51.70;;;;;;6270665;28;19917;-66
2023/10/06 14:16:22;;;;;;;;;;;22.90;51.70;;;;;;6266756;28;19915;-65
2023/10/06 14:19:24;;;;;;;;;;;22.90;51.60;;;;;;6266855;28;19915;-66
2023/10/06 14:22:30;;;;;;;;;;;22.90;51.60;;;;;;6270251;28;19950;-65
2023/10/06 14:25:33;;;;;;;;;;;22.90;51.60;;;;;;6263143;28;20470;-66
2023/10/06 14:28:33;;;;;;;;;;;22.90;51.60;;;;;;6267790;28;19904;-66
2023/10/06 14:31:47;;;;;;;;;;;22.90;51.60;;;;;;6273920;28;20441;-65
2023/10/06 14:35:12;;;;;;;;;;;22.90;51.60;;;;;;6267838;28;20007;-65
2023/10/06 14:48:13;;;;;;;;;;;22.90;51.50;;;;;;6276907;28;19908;-65
2023/10/06 14:51:14;;;;;;;;;;;22.90;51.70;;;;;;6276234;28;19912;-65
2023/10/06 14:54:15;;;;;;;;;;;22.90;51.60;;;;;;6270094;28;19966;-66
2023/10/06 14:57:16;;;;;;;;;;;22.90;51.50;;;;;;6264428;28;19937;-65
2023/10/06 15:00:16;;;;;;;;;;;22.90;51.50;;;;;;6264790;28;20278;-66
2023/10/06 15:03:17;;;;;;;;;;;22.90;51.50;;;;;;6270685;28;19916;-65
2023/10/06 15:06:18;;;;;;;;;;;22.90;51.50;;;;;;6264309;28;19913;-65
2023/10/06 15:09:19;;;;;;;;;;;22.90;51.60;;;;;;6262129;28;19916;-67
2023/10/06 15:12:21;;;;;;;;;;;22.90;51.50;;;;;;6269259;28;20399;-67
2023/10/06 15:15:22;;;;;;;;;;;22.90;51.60;;;;;;6272212;28;19911;-66
2023/10/06 15:18:23;;;;;;;;;;;22.90;51.50;;;;;;6265937;28;19904;-67
2023/10/06 15:21:24;;;;;;;;;;;22.90;51.50;;;;;;6263836;28;19909;-66
2023/10/06 15:24:25;;;;;;;;;;;22.90;51.40;;;;;;6270359;28;20019;-66
2023/10/06 15:27:25;;;;;;;;;;;22.90;51.40;;;;;;6269272;28;19912;-67
2023/10/06 15:30:29;;;;;;;;;;;22.90;51.40;;;;;;6269580;28;19913;-67
2023/10/06 15:33:30;;;;;;;;;;;22.90;51.40;;;;;;6278992;28;19911;-67
2023/10/06 15:36:30;;;;;;;;;;;22.90;51.40;;;;;;6271811;28;19905;-67
2023/10/06 15:39:31;;;;;;;;;;;23.00;51.50;;;;;;6262074;28;19931;-67
2023/10/06 15:42:38;;;;;;;;;;;23.00;51.50;;;;;;6270157;28;20373;-67
2023/10/06 15:45:39;;;;;;;;;;;23.00;51.90;;;;;;6273195;28;19979;-67
2023/10/06 15:48:40;;;;;;;;;;;22.90;52.00;;;;;;6265065;28;19904;-65
2023/10/06 15:51:42;;;;;;;;;;;22.90;52.90;;;;;;6272883;28;19916;-66
2023/10/06 15:54:42;;;;;;;;;;;22.90;52.30;;;;;;6270173;28;19904;-65
2023/10/06 15:57:43;;;;;;;;;;;22.90;52.00;;;;;;6269575;28;19940;-67
2023/10/06 16:00:43;;;;;;;;;;;22.90;51.80;;;;;;6270952;28;20447;-65
2023/10/06 16:03:46;;;;;;;;;;;22.90;51.70;;;;;;6260891;28;19904;-65
2023/10/06 16:06:48;;;;;;;;;;;23.00;51.60;;;;;;6266322;28;20387;-65
2023/10/06 16:09:50;;;;;;;;;;;22.90;51.60;;;;;;6267293;28;20391;-65
2023/10/06 16:12:53;;;;;;;;;;;22.90;51.60;;;;;;6272525;28;19999;-64
2023/10/06 16:15:54;;;;;;;;;;;23.00;51.60;;;;;;6269887;28;19913;-65
2023/10/06 16:18:54;;;;;;;;;;;22.90;51.60;;;;;;6265800;28;19959;-65
2023/10/06 16:21:55;;;;;;;;;;;22.90;51.60;;;;;;6260032;28;19944;-65
2023/10/06 16:24:56;;;;;;;;;;;22.90;51.60;;;;;;6261771;28;20002;-65
2023/10/06 16:27:57;;;;;;;;;;;22.90;51.60;;;;;;6271601;28;20302;-64
2023/10/06 16:30:57;;;;;;;;;;;22.90;51.60;;;;;;6266787;28;19916;-65
2023/10/06 16:33:58;;;;;;;;;;;23.00;51.80;;;;;;6275443;28;19932;-65
2023/10/06 16:36:59;;;;;;;;;;;23.00;51.60;;;;;;6263075;28;19924;-65
2023/10/06 16:40:02;;;;;;;;;;;23.00;52.00;;;;;;6262455;28;19925;-65
2023/10/06 16:43:03;;;;;;;;;;;23.00;52.90;;;;;;6266216;28;19909;-66
2023/10/06 16:46:04;;;;;;;;;;;23.00;52.20;;;;;;6263653;28;19905;-65
2023/10/06 16:49:05;;;;;;;;;;;22.90;52.00;;;;;;6273761;28;19992;-65
2023/10/06 16:52:06;;;;;;;;;;;22.90;52.00;;;;;;6266227;28;20624;-65
2023/10/06 16:55:06;;;;;;;;;;;23.00;52.10;;;;;;6266451;28;19912;-65
2023/10/06 16:58:07;;;;;;;;;;;22.90;52.00;;;;;;6270858;28;20340;-65
2023/10/06 17:01:08;;;;;;;;;;;22.90;52.20;;;;;;6269726;28;19917;-65
2023/10/06 17:04:14;;;;;;;;;;;22.90;52.00;;;;;;6265738;28;19916;-65
2023/10/06 17:07:14;;;;;;;;;;;22.90;52.00;;;;;;6269040;28;19913;-65
2023/10/06 17:10:15;;;;;;;;;;;22.90;51.80;;;;;;6270022;28;19909;-65
2023/10/06 17:13:21;;;;;;;;;;;22.90;51.70;;;;;;6266421;28;19950;-68
2023/10/06 17:16:21;;;;;;;;;;;22.90;51.60;;;;;;6268279;28;19909;-67
2023/10/06 17:19:22;;;;;;;;;;;22.90;51.70;;;;;;6274010;28;19919;-67
2023/10/06 17:22:24;;;;;;;;;;;22.90;51.60;;;;;;6264164;28;20345;-67
2023/10/06 17:25:25;;;;;;;;;;;22.90;51.60;;;;;;6260770;28;19934;-67
2023/10/06 17:28:25;;;;;;;;;;;22.90;51.60;;;;;;6272656;28;19909;-67
2023/10/06 17:31:27;;;;;;;;;;;22.90;51.50;;;;;;6278196;28;20435;-67
2023/10/06 17:34:27;;;;;;;;;;;23.00;51.50;;;;;;6269832;28;19917;-66
2023/10/06 17:37:28;;;;;;;;;;;22.90;51.50;;;;;;6269809;28;19931;-67
2023/10/06 17:40:29;;;;;;;;;;;22.90;51.60;;;;;;6266704;28;19921;-67
2023/10/06 17:43:30;;;;;;;;;;;22.90;51.50;;;;;;6272420;28;19962;-67
2023/10/06 17:46:32;;;;;;;;;;;22.90;51.50;;;;;;6278984;28;19940;-67
2023/10/06 17:49:33;;;;;;;;;;;22.90;51.90;;;;;;6277943;28;19955;-67
2023/10/06 17:52:33;;;;;;;;;;;22.70;53.20;;;;;;6264839;28;20543;-67
2023/10/06 17:55:34;;;;;;;;;;;22.50;54.00;;;;;;6270845;28;19905;-66
2023/10/06 17:58:36;;;;;;;;;;;22.40;54.50;;;;;;6272681;28;19909;-66